sensor_id;sensor_type;location;lat;lon;timestamp;P1;durP1;ratioP1;P2;durP2;ratioP2
76131;SDS011;64877;50.994;13.650;2023-08-17T00:01:25;11.57;;;9.05;;
76131;SDS011;64877;50.994;13.650;2023-08-17T00:03:50;14.10;;;9.07;;
76131;SDS011;64877;50.994;13.650;2023-08-17T00:06:16;11.23;;;8.30;;
76131;SDS011;64877;50.994;13.650;2023-08-17T00:08:42;12.40;;;8.45;;
76131;SDS011;64877;50.994;13.650;2023-08-17T00:11:07;10.95;;;8.10;;
76131;SDS011;64877;50.994;13.650;2023-08-17T00:13:33;9.63;;;7.75;;
76131;SDS011;64877;50.994;13.650;2023-08-17T00:15:58;12.85;;;7.78;;
76131;SDS011;64877;50.994;13.650;2023-08-17T00:18:25;11.32;;;8.95;;
76131;SDS011;64877;50.994;13.650;2023-08-17T00:20:50;9.63;;;7.82;;
76131;SDS011;64877;50.994;13.650;2023-08-17T00:23:16;11.73;;;8.35;;
76131;SDS011;64877;50.994;13.650;2023-08-17T00:25:41;8.30;;;6.70;;
76131;SDS011;64877;50.994;13.650;2023-08-17T00:28:07;9.60;;;7.78;;
76131;SDS011;64877;50.994;13.650;2023-08-17T00:30:33;13.43;;;7.60;;
76131;SDS011;64877;50.994;13.650;2023-08-17T00:33:01;9.88;;;7.95;;
76131;SDS011;64877;50.994;13.650;2023-08-17T00:35:27;10.23;;;7.65;;
76131;SDS011;64877;50.994;13.650;2023-08-17T00:37:55;9.75;;;7.57;;
76131;SDS011;64877;50.994;13.650;2023-08-17T00:40:21;12.63;;;8.25;;
76131;SDS011;64877;50.994;13.650;2023-08-17T00:42:46;10.25;;;7.88;;
76131;SDS011;64877;50.994;13.650;2023-08-17T00:45:12;12.02;;;8.38;;
76131;SDS011;64877;50.994;13.650;2023-08-17T00:47:37;9.27;;;7.57;;
76131;SDS011;64877;50.994;13.650;2023-08-17T00:50:03;9.93;;;7.40;;
76131;SDS011;64877;50.994;13.650;2023-08-17T00:52:29;10.82;;;7.75;;
76131;SDS011;64877;50.994;13.650;2023-08-17T00:54:57;8.77;;;7.28;;
76131;SDS011;64877;50.994;13.650;2023-08-17T00:57:23;10.38;;;7.00;;
76131;SDS011;64877;50.994;13.650;2023-08-17T00:59:49;10.93;;;7.57;;
76131;SDS011;64877;50.994;13.650;2023-08-17T01:02:15;13.68;;;7.35;;
76131;SDS011;64877;50.994;13.650;2023-08-17T01:04:42;9.43;;;8.07;;
76131;SDS011;64877;50.994;13.650;2023-08-17T01:07:08;10.20;;;7.72;;
76131;SDS011;64877;50.994;13.650;2023-08-17T01:09:34;9.32;;;7.25;;
76131;SDS011;64877;50.994;13.650;2023-08-17T01:12:02;10.82;;;7.85;;
76131;SDS011;64877;50.994;13.650;2023-08-17T01:17:54;11.13;;;7.43;;
76131;SDS011;64877;50.994;13.650;2023-08-17T01:20:23;9.60;;;7.43;;
76131;SDS011;64877;50.994;13.650;2023-08-17T01:22:50;10.88;;;8.05;;
76131;SDS011;64877;50.994;13.650;2023-08-17T01:25:22;10.27;;;7.60;;
76131;SDS011;64877;50.994;13.650;2023-08-17T01:27:48;13.82;;;8.38;;
76131;SDS011;64877;50.994;13.650;2023-08-17T01:30:14;12.60;;;8.20;;
76131;SDS011;64877;50.994;13.650;2023-08-17T01:32:44;11.57;;;8.07;;
76131;SDS011;64877;50.994;13.650;2023-08-17T01:35:14;12.55;;;8.75;;
76131;SDS011;64877;50.994;13.650;2023-08-17T01:37:44;11.13;;;8.10;;
76131;SDS011;64877;50.994;13.650;2023-08-17T01:40:09;11.73;;;8.32;;
76131;SDS011;64877;50.994;13.650;2023-08-17T01:42:37;9.93;;;8.00;;
76131;SDS011;64877;50.994;13.650;2023-08-17T01:45:04;10.07;;;7.25;;
76131;SDS011;64877;50.994;13.650;2023-08-17T01:47:30;9.50;;;8.15;;
76131;SDS011;64877;50.994;13.650;2023-08-17T01:49:55;10.02;;;7.20;;
76131;SDS011;64877;50.994;13.650;2023-08-17T01:52:25;10.30;;;7.18;;
76131;SDS011;64877;50.994;13.650;2023-08-17T01:54:52;11.75;;;7.63;;
76131;SDS011;64877;50.994;13.650;2023-08-17T01:57:18;9.48;;;7.45;;
76131;SDS011;64877;50.994;13.650;2023-08-17T01:59:43;12.20;;;7.68;;
76131;SDS011;64877;50.994;13.650;2023-08-17T02:02:09;9.82;;;7.50;;
76131;SDS011;64877;50.994;13.650;2023-08-17T02:04:36;11.25;;;7.75;;
76131;SDS011;64877;50.994;13.650;2023-08-17T02:07:02;10.20;;;8.23;;
76131;SDS011;64877;50.994;13.650;2023-08-17T02:09:28;13.57;;;7.20;;
76131;SDS011;64877;50.994;13.650;2023-08-17T02:11:53;10.05;;;7.32;;
76131;SDS011;64877;50.994;13.650;2023-08-17T02:14:19;10.77;;;7.13;;
76131;SDS011;64877;50.994;13.650;2023-08-17T02:16:44;10.43;;;7.97;;
76131;SDS011;64877;50.994;13.650;2023-08-17T02:19:10;8.82;;;7.18;;
76131;SDS011;64877;50.994;13.650;2023-08-17T02:21:36;11.23;;;7.53;;
76131;SDS011;64877;50.994;13.650;2023-08-17T02:24:01;11.57;;;7.60;;
76131;SDS011;64877;50.994;13.650;2023-08-17T02:26:28;10.00;;;7.40;;
76131;SDS011;64877;50.994;13.650;2023-08-17T02:28:55;10.57;;;7.60;;
76131;SDS011;64877;50.994;13.650;2023-08-17T02:31:23;9.65;;;7.25;;
76131;SDS011;64877;50.994;13.650;2023-08-17T02:33:48;9.55;;;7.75;;
76131;SDS011;64877;50.994;13.650;2023-08-17T02:36:14;10.57;;;7.57;;
76131;SDS011;64877;50.994;13.650;2023-08-17T02:38:39;9.45;;;6.93;;
76131;SDS011;64877;50.994;13.650;2023-08-17T02:41:05;11.57;;;6.82;;
76131;SDS011;64877;50.994;13.650;2023-08-17T02:43:30;10.90;;;7.68;;
76131;SDS011;64877;50.994;13.650;2023-08-17T02:45:55;10.15;;;7.70;;
76131;SDS011;64877;50.994;13.650;2023-08-17T02:48:21;12.43;;;8.30;;
76131;SDS011;64877;50.994;13.650;2023-08-17T02:50:47;11.60;;;8.15;;
76131;SDS011;64877;50.994;13.650;2023-08-17T02:53:12;9.43;;;7.70;;
76131;SDS011;64877;50.994;13.650;2023-08-17T02:55:37;11.05;;;7.68;;
76131;SDS011;64877;50.994;13.650;2023-08-17T02:58:03;9.52;;;8.02;;
76131;SDS011;64877;50.994;13.650;2023-08-17T03:00:29;10.45;;;7.68;;
76131;SDS011;64877;50.994;13.650;2023-08-17T03:02:56;11.68;;;8.23;;
76131;SDS011;64877;50.994;13.650;2023-08-17T03:05:21;11.82;;;8.45;;
76131;SDS011;64877;50.994;13.650;2023-08-17T03:07:47;11.50;;;7.90;;
76131;SDS011;64877;50.994;13.650;2023-08-17T03:10:12;14.00;;;8.52;;
76131;SDS011;64877;50.994;13.650;2023-08-17T03:12:38;10.65;;;8.55;;
76131;SDS011;64877;50.994;13.650;2023-08-17T03:15:04;12.10;;;8.90;;
76131;SDS011;64877;50.994;13.650;2023-08-17T03:17:32;10.85;;;8.50;;
76131;SDS011;64877;50.994;13.650;2023-08-17T03:19:58;12.18;;;8.57;;
76131;SDS011;64877;50.994;13.650;2023-08-17T03:22:25;13.60;;;8.63;;
76131;SDS011;64877;50.994;13.650;2023-08-17T03:27:44;12.68;;;9.35;;
76131;SDS011;64877;50.994;13.650;2023-08-17T03:30:09;13.25;;;8.88;;
76131;SDS011;64877;50.994;13.650;2023-08-17T03:32:35;11.75;;;8.18;;
76131;SDS011;64877;50.994;13.650;2023-08-17T03:35:01;14.52;;;8.15;;
76131;SDS011;64877;50.994;13.650;2023-08-17T03:37:26;10.90;;;7.72;;
76131;SDS011;64877;50.994;13.650;2023-08-17T03:39:52;9.45;;;7.40;;
76131;SDS011;64877;50.994;13.650;2023-08-17T03:42:17;9.55;;;7.38;;
76131;SDS011;64877;50.994;13.650;2023-08-17T03:44:43;10.15;;;8.05;;
76131;SDS011;64877;50.994;13.650;2023-08-17T03:47:08;10.55;;;8.20;;
76131;SDS011;64877;50.994;13.650;2023-08-17T03:49:33;14.13;;;8.73;;
76131;SDS011;64877;50.994;13.650;2023-08-17T03:52:00;10.15;;;8.10;;
76131;SDS011;64877;50.994;13.650;2023-08-17T03:54:26;12.05;;;8.40;;
76131;SDS011;64877;50.994;13.650;2023-08-17T03:56:51;10.48;;;8.23;;
76131;SDS011;64877;50.994;13.650;2023-08-17T03:59:16;10.82;;;7.63;;
76131;SDS011;64877;50.994;13.650;2023-08-17T04:01:42;14.02;;;8.70;;
76131;SDS011;64877;50.994;13.650;2023-08-17T04:04:09;11.18;;;7.97;;
76131;SDS011;64877;50.994;13.650;2023-08-17T04:06:34;12.02;;;8.43;;
76131;SDS011;64877;50.994;13.650;2023-08-17T04:09:01;18.55;;;10.38;;
76131;SDS011;64877;50.994;13.650;2023-08-17T04:11:26;11.32;;;8.85;;
76131;SDS011;64877;50.994;13.650;2023-08-17T04:13:52;11.30;;;9.15;;
76131;SDS011;64877;50.994;13.650;2023-08-17T04:16:19;13.65;;;8.70;;
76131;SDS011;64877;50.994;13.650;2023-08-17T04:18:45;10.00;;;7.68;;
76131;SDS011;64877;50.994;13.650;2023-08-17T04:21:11;13.70;;;7.20;;
76131;SDS011;64877;50.994;13.650;2023-08-17T04:23:36;11.35;;;8.38;;
76131;SDS011;64877;50.994;13.650;2023-08-17T04:26:01;13.18;;;8.38;;
76131;SDS011;64877;50.994;13.650;2023-08-17T04:28:28;10.63;;;7.50;;
76131;SDS011;64877;50.994;13.650;2023-08-17T04:30:53;10.55;;;8.13;;
76131;SDS011;64877;50.994;13.650;2023-08-17T04:33:19;13.32;;;7.00;;
76131;SDS011;64877;50.994;13.650;2023-08-17T04:35:48;10.48;;;7.35;;
76131;SDS011;64877;50.994;13.650;2023-08-17T04:38:13;10.50;;;7.22;;
76131;SDS011;64877;50.994;13.650;2023-08-17T04:40:39;11.85;;;7.13;;
76131;SDS011;64877;50.994;13.650;2023-08-17T04:43:04;11.77;;;7.28;;
76131;SDS011;64877;50.994;13.650;2023-08-17T04:45:30;10.73;;;7.72;;
76131;SDS011;64877;50.994;13.650;2023-08-17T04:47:55;10.77;;;7.25;;
76131;SDS011;64877;50.994;13.650;2023-08-17T04:50:22;11.20;;;8.07;;
76131;SDS011;64877;50.994;13.650;2023-08-17T04:52:47;11.50;;;7.80;;
76131;SDS011;64877;50.994;13.650;2023-08-17T04:55:13;10.90;;;7.05;;
76131;SDS011;64877;50.994;13.650;2023-08-17T04:57:41;10.90;;;7.93;;
76131;SDS011;64877;50.994;13.650;2023-08-17T05:00:08;9.45;;;7.30;;
76131;SDS011;64877;50.994;13.650;2023-08-17T05:02:35;9.70;;;7.97;;
76131;SDS011;64877;50.994;13.650;2023-08-17T05:05:04;13.07;;;8.63;;
76131;SDS011;64877;50.994;13.650;2023-08-17T05:07:32;14.23;;;8.30;;
76131;SDS011;64877;50.994;13.650;2023-08-17T05:09:59;12.00;;;8.45;;
76131;SDS011;64877;50.994;13.650;2023-08-17T05:12:25;11.57;;;8.77;;
76131;SDS011;64877;50.994;13.650;2023-08-17T05:14:51;11.57;;;8.95;;
76131;SDS011;64877;50.994;13.650;2023-08-17T05:17:16;12.30;;;8.60;;
76131;SDS011;64877;50.994;13.650;2023-08-17T05:19:42;12.27;;;9.20;;
76131;SDS011;64877;50.994;13.650;2023-08-17T05:22:10;12.35;;;8.90;;
76131;SDS011;64877;50.994;13.650;2023-08-17T05:24:37;11.05;;;8.55;;
76131;SDS011;64877;50.994;13.650;2023-08-17T05:27:03;12.80;;;8.80;;
76131;SDS011;64877;50.994;13.650;2023-08-17T05:29:29;12.30;;;8.68;;
76131;SDS011;64877;50.994;13.650;2023-08-17T05:31:54;10.38;;;7.70;;
76131;SDS011;64877;50.994;13.650;2023-08-17T05:34:20;9.75;;;7.25;;
76131;SDS011;64877;50.994;13.650;2023-08-17T05:36:45;13.93;;;9.18;;
76131;SDS011;64877;50.994;13.650;2023-08-17T05:39:12;10.77;;;8.05;;
76131;SDS011;64877;50.994;13.650;2023-08-17T05:41:38;9.98;;;7.57;;
76131;SDS011;64877;50.994;13.650;2023-08-17T05:44:03;11.40;;;7.82;;
76131;SDS011;64877;50.994;13.650;2023-08-17T05:46:29;10.48;;;8.05;;
76131;SDS011;64877;50.994;13.650;2023-08-17T05:48:54;13.30;;;8.15;;
76131;SDS011;64877;50.994;13.650;2023-08-17T05:51:20;12.73;;;9.15;;
76131;SDS011;64877;50.994;13.650;2023-08-17T05:53:45;10.18;;;6.93;;
76131;SDS011;64877;50.994;13.650;2023-08-17T05:56:11;12.25;;;8.10;;
76131;SDS011;64877;50.994;13.650;2023-08-17T05:58:36;13.65;;;7.80;;
76131;SDS011;64877;50.994;13.650;2023-08-17T06:01:07;10.65;;;7.65;;
76131;SDS011;64877;50.994;13.650;2023-08-17T06:03:34;10.57;;;7.07;;
76131;SDS011;64877;50.994;13.650;2023-08-17T06:06:01;15.77;;;7.40;;
76131;SDS011;64877;50.994;13.650;2023-08-17T06:08:27;15.57;;;8.00;;
76131;SDS011;64877;50.994;13.650;2023-08-17T06:10:52;9.32;;;7.18;;
76131;SDS011;64877;50.994;13.650;2023-08-17T06:13:18;9.13;;;6.88;;
76131;SDS011;64877;50.994;13.650;2023-08-17T06:15:43;9.82;;;7.20;;
76131;SDS011;64877;50.994;13.650;2023-08-17T06:18:09;9.48;;;7.38;;
76131;SDS011;64877;50.994;13.650;2023-08-17T06:20:34;16.27;;;8.70;;
76131;SDS011;64877;50.994;13.650;2023-08-17T06:23:00;10.13;;;7.70;;
76131;SDS011;64877;50.994;13.650;2023-08-17T06:25:25;12.77;;;8.52;;
76131;SDS011;64877;50.994;13.650;2023-08-17T06:27:51;11.43;;;8.00;;
76131;SDS011;64877;50.994;13.650;2023-08-17T06:30:17;9.68;;;7.25;;
76131;SDS011;64877;50.994;13.650;2023-08-17T06:32:42;11.13;;;7.95;;
76131;SDS011;64877;50.994;13.650;2023-08-17T06:35:08;13.10;;;8.43;;
76131;SDS011;64877;50.994;13.650;2023-08-17T06:37:33;16.10;;;8.57;;
76131;SDS011;64877;50.994;13.650;2023-08-17T06:39:59;14.23;;;8.63;;
76131;SDS011;64877;50.994;13.650;2023-08-17T06:42:24;11.52;;;7.85;;
76131;SDS011;64877;50.994;13.650;2023-08-17T06:44:50;10.82;;;8.05;;
76131;SDS011;64877;50.994;13.650;2023-08-17T06:47:16;12.93;;;7.97;;
76131;SDS011;64877;50.994;13.650;2023-08-17T06:49:41;11.25;;;7.85;;
76131;SDS011;64877;50.994;13.650;2023-08-17T06:52:07;10.25;;;8.20;;
76131;SDS011;64877;50.994;13.650;2023-08-17T06:54:32;11.65;;;7.55;;
76131;SDS011;64877;50.994;13.650;2023-08-17T06:56:58;12.48;;;8.20;;
76131;SDS011;64877;50.994;13.650;2023-08-17T06:59:23;10.32;;;8.18;;
76131;SDS011;64877;50.994;13.650;2023-08-17T07:01:49;11.68;;;8.68;;
76131;SDS011;64877;50.994;13.650;2023-08-17T07:04:15;12.70;;;8.05;;
76131;SDS011;64877;50.994;13.650;2023-08-17T07:06:40;10.55;;;7.72;;
76131;SDS011;64877;50.994;13.650;2023-08-17T07:09:06;9.23;;;7.05;;
76131;SDS011;64877;50.994;13.650;2023-08-17T07:11:32;11.85;;;7.50;;
76131;SDS011;64877;50.994;13.650;2023-08-17T07:13:58;12.38;;;7.97;;
76131;SDS011;64877;50.994;13.650;2023-08-17T07:16:23;13.93;;;8.77;;
76131;SDS011;64877;50.994;13.650;2023-08-17T07:18:49;11.18;;;9.40;;
76131;SDS011;64877;50.994;13.650;2023-08-17T07:21:14;12.60;;;8.80;;
76131;SDS011;64877;50.994;13.650;2023-08-17T07:23:43;12.18;;;8.23;;
76131;SDS011;64877;50.994;13.650;2023-08-17T07:26:09;13.05;;;9.95;;
76131;SDS011;64877;50.994;13.650;2023-08-17T07:28:35;17.65;;;11.25;;
76131;SDS011;64877;50.994;13.650;2023-08-17T07:31:00;14.02;;;10.75;;
76131;SDS011;64877;50.994;13.650;2023-08-17T07:33:26;10.98;;;9.68;;
76131;SDS011;64877;50.994;13.650;2023-08-17T07:35:51;15.02;;;10.35;;
76131;SDS011;64877;50.994;13.650;2023-08-17T07:38:18;12.55;;;9.52;;
76131;SDS011;64877;50.994;13.650;2023-08-17T07:40:43;14.50;;;10.57;;
76131;SDS011;64877;50.994;13.650;2023-08-17T07:43:09;12.00;;;9.70;;
76131;SDS011;64877;50.994;13.650;2023-08-17T07:45:34;11.65;;;9.27;;
76131;SDS011;64877;50.994;13.650;2023-08-17T07:48:00;12.00;;;9.38;;
76131;SDS011;64877;50.994;13.650;2023-08-17T07:50:25;12.98;;;9.93;;
76131;SDS011;64877;50.994;13.650;2023-08-17T07:52:51;12.02;;;9.00;;
76131;SDS011;64877;50.994;13.650;2023-08-17T07:55:16;11.68;;;9.70;;
76131;SDS011;64877;50.994;13.650;2023-08-17T07:57:41;12.15;;;10.07;;
76131;SDS011;64877;50.994;13.650;2023-08-17T08:00:07;9.32;;;8.43;;
76131;SDS011;64877;50.994;13.650;2023-08-17T08:02:35;10.23;;;8.77;;
76131;SDS011;64877;50.994;13.650;2023-08-17T08:05:01;9.77;;;7.63;;
76131;SDS011;64877;50.994;13.650;2023-08-17T08:07:26;12.68;;;8.45;;
76131;SDS011;64877;50.994;13.650;2023-08-17T08:09:51;12.07;;;7.07;;
76131;SDS011;64877;50.994;13.650;2023-08-17T08:12:17;10.20;;;8.27;;
76131;SDS011;64877;50.994;13.650;2023-08-17T08:14:42;9.50;;;7.00;;
76131;SDS011;64877;50.994;13.650;2023-08-17T08:17:08;8.15;;;6.13;;
76131;SDS011;64877;50.994;13.650;2023-08-17T08:19:34;7.22;;;6.53;;
76131;SDS011;64877;50.994;13.650;2023-08-17T08:22:00;9.00;;;5.95;;
76131;SDS011;64877;50.994;13.650;2023-08-17T08:24:27;7.13;;;5.55;;
76131;SDS011;64877;50.994;13.650;2023-08-17T08:26:58;7.82;;;6.18;;
76131;SDS011;64877;50.994;13.650;2023-08-17T08:29:24;7.80;;;5.43;;
76131;SDS011;64877;50.994;13.650;2023-08-17T08:31:49;9.48;;;5.78;;
76131;SDS011;64877;50.994;13.650;2023-08-17T08:34:15;9.27;;;5.15;;
76131;SDS011;64877;50.994;13.650;2023-08-17T08:36:40;7.10;;;5.68;;
76131;SDS011;64877;50.994;13.650;2023-08-17T08:39:05;7.32;;;4.90;;
76131;SDS011;64877;50.994;13.650;2023-08-17T08:41:31;7.75;;;5.15;;
76131;SDS011;64877;50.994;13.650;2023-08-17T08:46:23;7.30;;;4.75;;
76131;SDS011;64877;50.994;13.650;2023-08-17T08:48:55;8.57;;;5.50;;
76131;SDS011;64877;50.994;13.650;2023-08-17T08:51:23;8.82;;;5.47;;
76131;SDS011;64877;50.994;13.650;2023-08-17T08:53:54;6.75;;;6.03;;
76131;SDS011;64877;50.994;13.650;2023-08-17T08:56:27;7.10;;;5.88;;
76131;SDS011;64877;50.994;13.650;2023-08-17T08:58:56;10.10;;;6.13;;
76131;SDS011;64877;50.994;13.650;2023-08-17T09:01:26;7.80;;;6.35;;
76131;SDS011;64877;50.994;13.650;2023-08-17T09:03:52;7.75;;;5.85;;
76131;SDS011;64877;50.994;13.650;2023-08-17T09:08:44;6.75;;;5.35;;
76131;SDS011;64877;50.994;13.650;2023-08-17T09:11:10;6.35;;;5.40;;
76131;SDS011;64877;50.994;13.650;2023-08-17T09:13:36;7.22;;;5.60;;
76131;SDS011;64877;50.994;13.650;2023-08-17T09:16:01;6.55;;;5.40;;
76131;SDS011;64877;50.994;13.650;2023-08-17T09:18:27;8.00;;;5.78;;
76131;SDS011;64877;50.994;13.650;2023-08-17T09:20:52;10.20;;;6.10;;
76131;SDS011;64877;50.994;13.650;2023-08-17T09:23:20;11.10;;;6.03;;
76131;SDS011;64877;50.994;13.650;2023-08-17T09:25:47;7.43;;;5.72;;
76131;SDS011;64877;50.994;13.650;2023-08-17T09:28:17;8.82;;;6.13;;
76131;SDS011;64877;50.994;13.650;2023-08-17T09:33:26;8.52;;;5.85;;
76131;SDS011;64877;50.994;13.650;2023-08-17T09:35:53;7.30;;;5.97;;
76131;SDS011;64877;50.994;13.650;2023-08-17T09:38:20;7.38;;;5.55;;
76131;SDS011;64877;50.994;13.650;2023-08-17T09:40:46;8.93;;;5.32;;
76131;SDS011;64877;50.994;13.650;2023-08-17T09:43:13;11.55;;;5.78;;
76131;SDS011;64877;50.994;13.650;2023-08-17T09:45:40;8.43;;;5.45;;
76131;SDS011;64877;50.994;13.650;2023-08-17T09:48:09;9.25;;;5.68;;
76131;SDS011;64877;50.994;13.650;2023-08-17T09:50:35;10.20;;;6.32;;
76131;SDS011;64877;50.994;13.650;2023-08-17T09:53:03;8.73;;;5.93;;
76131;SDS011;64877;50.994;13.650;2023-08-17T09:55:32;7.60;;;5.70;;
76131;SDS011;64877;50.994;13.650;2023-08-17T09:57:59;9.10;;;5.40;;
76131;SDS011;64877;50.994;13.650;2023-08-17T10:00:25;7.63;;;5.25;;
76131;SDS011;64877;50.994;13.650;2023-08-17T10:02:52;9.02;;;5.43;;
76131;SDS011;64877;50.994;13.650;2023-08-17T10:05:18;8.48;;;5.60;;
76131;SDS011;64877;50.994;13.650;2023-08-17T10:07:51;8.60;;;5.47;;
76131;SDS011;64877;50.994;13.650;2023-08-17T10:10:22;6.38;;;4.72;;
76131;SDS011;64877;50.994;13.650;2023-08-17T10:15:45;9.13;;;5.15;;
76131;SDS011;64877;50.994;13.650;2023-08-17T10:18:27;9.23;;;5.55;;
76131;SDS011;64877;50.994;13.650;2023-08-17T10:21:01;10.93;;;4.90;;
76131;SDS011;64877;50.994;13.650;2023-08-17T10:23:30;9.02;;;4.95;;
76131;SDS011;64877;50.994;13.650;2023-08-17T10:25:57;8.95;;;5.78;;
76131;SDS011;64877;50.994;13.650;2023-08-17T10:28:22;8.55;;;5.28;;
76131;SDS011;64877;50.994;13.650;2023-08-17T10:30:49;7.28;;;5.00;;
76131;SDS011;64877;50.994;13.650;2023-08-17T10:33:16;8.25;;;5.68;;
76131;SDS011;64877;50.994;13.650;2023-08-17T10:35:42;8.60;;;5.78;;
76131;SDS011;64877;50.994;13.650;2023-08-17T10:38:08;6.15;;;5.55;;
76131;SDS011;64877;50.994;13.650;2023-08-17T10:40:39;7.85;;;5.38;;
76131;SDS011;64877;50.994;13.650;2023-08-17T10:43:06;6.43;;;5.28;;
76131;SDS011;64877;50.994;13.650;2023-08-17T10:45:32;7.45;;;5.30;;
76131;SDS011;64877;50.994;13.650;2023-08-17T10:50:31;6.95;;;5.22;;
76131;SDS011;64877;50.994;13.650;2023-08-17T10:53:03;6.03;;;4.82;;
76131;SDS011;64877;50.994;13.650;2023-08-17T10:55:46;7.70;;;5.10;;
76131;SDS011;64877;50.994;13.650;2023-08-17T10:58:17;7.80;;;5.30;;
76131;SDS011;64877;50.994;13.650;2023-08-17T11:00:42;6.40;;;5.00;;
76131;SDS011;64877;50.994;13.650;2023-08-17T11:03:10;13.45;;;5.53;;
76131;SDS011;64877;50.994;13.650;2023-08-17T11:05:43;8.73;;;5.38;;
76131;SDS011;64877;50.994;13.650;2023-08-17T11:10:56;6.95;;;5.20;;
76131;SDS011;64877;50.994;13.650;2023-08-17T11:13:23;8.95;;;5.70;;
76131;SDS011;64877;50.994;13.650;2023-08-17T11:15:48;11.93;;;5.35;;
76131;SDS011;64877;50.994;13.650;2023-08-17T11:18:14;8.13;;;5.50;;
76131;SDS011;64877;50.994;13.650;2023-08-17T11:20:40;6.82;;;4.82;;
76131;SDS011;64877;50.994;13.650;2023-08-17T11:23:07;7.43;;;5.40;;
76131;SDS011;64877;50.994;13.650;2023-08-17T11:25:34;7.30;;;5.47;;
76131;SDS011;64877;50.994;13.650;2023-08-17T11:28:01;6.95;;;5.18;;
76131;SDS011;64877;50.994;13.650;2023-08-17T11:30:27;8.35;;;5.40;;
76131;SDS011;64877;50.994;13.650;2023-08-17T11:32:54;8.20;;;5.60;;
76131;SDS011;64877;50.994;13.650;2023-08-17T11:35:21;11.60;;;5.70;;
76131;SDS011;64877;50.994;13.650;2023-08-17T11:37:47;9.95;;;5.93;;
76131;SDS011;64877;50.994;13.650;2023-08-17T11:40:14;10.88;;;5.28;;
76131;SDS011;64877;50.994;13.650;2023-08-17T11:42:40;10.10;;;5.72;;
76131;SDS011;64877;50.994;13.650;2023-08-17T11:47:36;8.10;;;5.22;;
76131;SDS011;64877;50.994;13.650;2023-08-17T11:50:03;8.85;;;5.40;;
76131;SDS011;64877;50.994;13.650;2023-08-17T11:52:30;7.05;;;4.93;;
76131;SDS011;64877;50.994;13.650;2023-08-17T11:54:58;7.30;;;5.38;;
76131;SDS011;64877;50.994;13.650;2023-08-17T11:57:25;11.90;;;5.63;;
76131;SDS011;64877;50.994;13.650;2023-08-17T11:59:57;8.45;;;5.25;;
76131;SDS011;64877;50.994;13.650;2023-08-17T12:02:24;7.20;;;5.53;;
76131;SDS011;64877;50.994;13.650;2023-08-17T12:04:51;5.80;;;5.20;;
76131;SDS011;64877;50.994;13.650;2023-08-17T12:07:17;8.50;;;5.55;;
76131;SDS011;64877;50.994;13.650;2023-08-17T12:09:44;5.72;;;5.07;;
76131;SDS011;64877;50.994;13.650;2023-08-17T12:12:13;7.88;;;4.68;;
76131;SDS011;64877;50.994;13.650;2023-08-17T12:14:42;9.27;;;5.03;;
76131;SDS011;64877;50.994;13.650;2023-08-17T12:17:19;8.00;;;5.35;;
76131;SDS011;64877;50.994;13.650;2023-08-17T12:19:48;8.35;;;5.13;;
76131;SDS011;64877;50.994;13.650;2023-08-17T12:22:16;7.50;;;5.43;;
76131;SDS011;64877;50.994;13.650;2023-08-17T12:24:41;5.72;;;5.10;;
76131;SDS011;64877;50.994;13.650;2023-08-17T12:27:07;8.45;;;5.20;;
76131;SDS011;64877;50.994;13.650;2023-08-17T12:29:33;7.20;;;5.13;;
76131;SDS011;64877;50.994;13.650;2023-08-17T12:32:00;9.25;;;4.95;;
76131;SDS011;64877;50.994;13.650;2023-08-17T12:34:26;8.52;;;5.28;;
76131;SDS011;64877;50.994;13.650;2023-08-17T12:36:52;9.40;;;5.22;;
76131;SDS011;64877;50.994;13.650;2023-08-17T12:39:17;5.38;;;4.72;;
76131;SDS011;64877;50.994;13.650;2023-08-17T12:41:43;8.48;;;5.00;;
76131;SDS011;64877;50.994;13.650;2023-08-17T12:44:09;7.18;;;4.78;;
76131;SDS011;64877;50.994;13.650;2023-08-17T12:46:38;5.70;;;5.05;;
76131;SDS011;64877;50.994;13.650;2023-08-17T12:49:06;7.20;;;4.38;;
76131;SDS011;64877;50.994;13.650;2023-08-17T12:51:32;7.13;;;4.13;;
76131;SDS011;64877;50.994;13.650;2023-08-17T12:53:58;6.93;;;3.60;;
76131;SDS011;64877;50.994;13.650;2023-08-17T12:56:24;4.88;;;3.53;;
76131;SDS011;64877;50.994;13.650;2023-08-17T12:58:49;5.95;;;3.88;;
76131;SDS011;64877;50.994;13.650;2023-08-17T13:01:14;6.15;;;4.15;;
76131;SDS011;64877;50.994;13.650;2023-08-17T13:03:40;8.35;;;4.00;;
76131;SDS011;64877;50.994;13.650;2023-08-17T13:06:06;5.70;;;3.70;;
76131;SDS011;64877;50.994;13.650;2023-08-17T13:10:58;7.22;;;3.83;;
76131;SDS011;64877;50.994;13.650;2023-08-17T13:13:23;8.57;;;3.80;;
76131;SDS011;64877;50.994;13.650;2023-08-17T13:15:48;5.75;;;4.00;;
76131;SDS011;64877;50.994;13.650;2023-08-17T13:18:14;7.35;;;4.00;;
76131;SDS011;64877;50.994;13.650;2023-08-17T13:20:39;8.38;;;4.20;;
76131;SDS011;64877;50.994;13.650;2023-08-17T13:23:05;5.78;;;4.38;;
76131;SDS011;64877;50.994;13.650;2023-08-17T13:25:31;15.75;;;4.22;;
76131;SDS011;64877;50.994;13.650;2023-08-17T13:27:57;11.35;;;4.22;;
76131;SDS011;64877;50.994;13.650;2023-08-17T13:30:22;9.80;;;3.97;;
76131;SDS011;64877;50.994;13.650;2023-08-17T13:32:48;8.20;;;4.82;;
76131;SDS011;64877;50.994;13.650;2023-08-17T13:35:13;8.90;;;4.03;;
76131;SDS011;64877;50.994;13.650;2023-08-17T13:37:40;4.93;;;3.70;;
76131;SDS011;64877;50.994;13.650;2023-08-17T13:40:06;11.80;;;4.30;;
76131;SDS011;64877;50.994;13.650;2023-08-17T13:42:32;6.78;;;4.32;;
76131;SDS011;64877;50.994;13.650;2023-08-17T13:44:57;5.00;;;3.97;;
76131;SDS011;64877;50.994;13.650;2023-08-17T13:47:23;5.50;;;4.18;;
76131;SDS011;64877;50.994;13.650;2023-08-17T13:49:48;7.38;;;4.03;;
76131;SDS011;64877;50.994;13.650;2023-08-17T13:52:14;5.90;;;4.35;;
76131;SDS011;64877;50.994;13.650;2023-08-17T13:54:39;5.88;;;4.15;;
76131;SDS011;64877;50.994;13.650;2023-08-17T13:57:05;4.65;;;4.13;;
76131;SDS011;64877;50.994;13.650;2023-08-17T13:59:31;10.45;;;4.72;;
76131;SDS011;64877;50.994;13.650;2023-08-17T14:01:56;7.03;;;4.35;;
76131;SDS011;64877;50.994;13.650;2023-08-17T14:04:22;6.15;;;4.07;;
76131;SDS011;64877;50.994;13.650;2023-08-17T14:06:47;6.75;;;3.85;;
76131;SDS011;64877;50.994;13.650;2023-08-17T14:09:13;8.20;;;3.75;;
76131;SDS011;64877;50.994;13.650;2023-08-17T14:11:39;5.63;;;3.88;;
76131;SDS011;64877;50.994;13.650;2023-08-17T14:14:04;5.43;;;3.72;;
76131;SDS011;64877;50.994;13.650;2023-08-17T14:16:30;7.78;;;4.20;;
76131;SDS011;64877;50.994;13.650;2023-08-17T14:18:55;6.13;;;4.40;;
76131;SDS011;64877;50.994;13.650;2023-08-17T14:21:21;15.68;;;7.97;;
76131;SDS011;64877;50.994;13.650;2023-08-17T14:23:46;5.63;;;3.40;;
76131;SDS011;64877;50.994;13.650;2023-08-17T14:26:12;4.63;;;3.00;;
76131;SDS011;64877;50.994;13.650;2023-08-17T14:28:38;4.50;;;3.40;;
76131;SDS011;64877;50.994;13.650;2023-08-17T14:31:03;7.78;;;3.20;;
76131;SDS011;64877;50.994;13.650;2023-08-17T14:33:29;5.47;;;3.20;;
76131;SDS011;64877;50.994;13.650;2023-08-17T14:35:54;8.52;;;4.47;;
76131;SDS011;64877;50.994;13.650;2023-08-17T14:38:20;36.42;;;10.15;;
76131;SDS011;64877;50.994;13.650;2023-08-17T14:40:46;9.50;;;4.97;;
76131;SDS011;64877;50.994;13.650;2023-08-17T14:45:40;88.57;;;23.23;;
76131;SDS011;64877;50.994;13.650;2023-08-17T14:48:07;15.38;;;5.93;;
76131;SDS011;64877;50.994;13.650;2023-08-17T14:50:36;6.53;;;3.72;;
76131;SDS011;64877;50.994;13.650;2023-08-17T14:53:03;12.40;;;6.50;;